sensor_id;sensor_type;location;lat;lon;timestamp;P1;durP1;ratioP1;P2;durP2;ratioP2
4182;SDS011;2105;52.300;9.182;2023-12-29T00:00:13;14.43;;;11.70;;
4182;SDS011;2105;52.300;9.182;2023-12-29T00:02:40;13.13;;;10.90;;
4182;SDS011;2105;52.300;9.182;2023-12-29T00:05:07;12.17;;;10.97;;
4182;SDS011;2105;52.300;9.182;2023-12-29T00:07:34;16.63;;;11.50;;
4182;SDS011;2105;52.300;9.182;2023-12-29T00:10:00;12.47;;;11.17;;
4182;SDS011;2105;52.300;9.182;2023-12-29T00:12:27;12.90;;;11.63;;
4182;SDS011;2105;52.300;9.182;2023-12-29T00:14:54;15.53;;;11.27;;
4182;SDS011;2105;52.300;9.182;2023-12-29T00:17:22;13.13;;;11.17;;
4182;SDS011;2105;52.300;9.182;2023-12-29T00:19:49;12.20;;;11.00;;
4182;SDS011;2105;52.300;9.182;2023-12-29T00:22:15;12.17;;;10.80;;
4182;SDS011;2105;52.300;9.182;2023-12-29T00:24:42;12.50;;;10.70;;
4182;SDS011;2105;52.300;9.182;2023-12-29T00:27:09;11.93;;;10.73;;
4182;SDS011;2105;52.300;9.182;2023-12-29T00:29:35;11.73;;;10.70;;
4182;SDS011;2105;52.300;9.182;2023-12-29T00:32:02;14.10;;;10.50;;
4182;SDS011;2105;52.300;9.182;2023-12-29T00:34:32;13.17;;;11.80;;
4182;SDS011;2105;52.300;9.182;2023-12-29T00:36:59;12.17;;;10.97;;
4182;SDS011;2105;52.300;9.182;2023-12-29T00:39:26;11.70;;;10.50;;
4182;SDS011;2105;52.300;9.182;2023-12-29T00:41:56;11.13;;;10.13;;
4182;SDS011;2105;52.300;9.182;2023-12-29T00:44:22;11.93;;;10.73;;
4182;SDS011;2105;52.300;9.182;2023-12-29T00:46:49;12.20;;;11.00;;
4182;SDS011;2105;52.300;9.182;2023-12-29T00:49:16;12.13;;;10.73;;
4182;SDS011;2105;52.300;9.182;2023-12-29T00:51:44;11.13;;;9.80;;
4182;SDS011;2105;52.300;9.182;2023-12-29T00:54:13;11.80;;;10.70;;
4182;SDS011;2105;52.300;9.182;2023-12-29T00:56:47;11.97;;;10.97;;
4182;SDS011;2105;52.300;9.182;2023-12-29T00:59:14;12.10;;;10.80;;
4182;SDS011;2105;52.300;9.182;2023-12-29T01:01:41;11.77;;;10.57;;
4182;SDS011;2105;52.300;9.182;2023-12-29T01:04:09;11.70;;;10.53;;
4182;SDS011;2105;52.300;9.182;2023-12-29T01:06:36;13.73;;;11.03;;
4182;SDS011;2105;52.300;9.182;2023-12-29T01:09:04;16.57;;;10.57;;
4182;SDS011;2105;52.300;9.182;2023-12-29T01:11:33;15.60;;;10.40;;
4182;SDS011;2105;52.300;9.182;2023-12-29T01:13:59;11.10;;;10.10;;
4182;SDS011;2105;52.300;9.182;2023-12-29T01:16:26;16.40;;;10.50;;
4182;SDS011;2105;52.300;9.182;2023-12-29T01:18:53;13.80;;;10.50;;
4182;SDS011;2105;52.300;9.182;2023-12-29T01:21:19;11.70;;;10.60;;
4182;SDS011;2105;52.300;9.182;2023-12-29T01:23:46;11.90;;;10.80;;
4182;SDS011;2105;52.300;9.182;2023-12-29T01:26:17;11.40;;;10.40;;
4182;SDS011;2105;52.300;9.182;2023-12-29T01:28:44;12.60;;;10.10;;
4182;SDS011;2105;52.300;9.182;2023-12-29T01:31:10;11.27;;;9.57;;
4182;SDS011;2105;52.300;9.182;2023-12-29T01:33:38;11.13;;;9.70;;
4182;SDS011;2105;52.300;9.182;2023-12-29T01:36:05;10.50;;;9.27;;
4182;SDS011;2105;52.300;9.182;2023-12-29T01:38:35;21.50;;;10.40;;
4182;SDS011;2105;52.300;9.182;2023-12-29T01:41:02;17.47;;;10.57;;
4182;SDS011;2105;52.300;9.182;2023-12-29T01:43:30;12.67;;;10.37;;
4182;SDS011;2105;52.300;9.182;2023-12-29T01:45:57;12.00;;;9.60;;
4182;SDS011;2105;52.300;9.182;2023-12-29T01:48:24;10.50;;;9.60;;
4182;SDS011;2105;52.300;9.182;2023-12-29T01:50:51;10.97;;;10.07;;
4182;SDS011;2105;52.300;9.182;2023-12-29T01:53:19;12.97;;;10.10;;
4182;SDS011;2105;52.300;9.182;2023-12-29T01:55:46;11.30;;;10.07;;
4182;SDS011;2105;52.300;9.182;2023-12-29T01:58:13;12.70;;;10.53;;
4182;SDS011;2105;52.300;9.182;2023-12-29T02:00:44;13.47;;;10.70;;
4182;SDS011;2105;52.300;9.182;2023-12-29T02:03:11;14.67;;;10.30;;
4182;SDS011;2105;52.300;9.182;2023-12-29T02:05:38;11.27;;;10.23;;
4182;SDS011;2105;52.300;9.182;2023-12-29T02:08:06;15.07;;;10.57;;
4182;SDS011;2105;52.300;9.182;2023-12-29T02:10:34;11.73;;;9.93;;
4182;SDS011;2105;52.300;9.182;2023-12-29T02:13:01;11.07;;;9.87;;
4182;SDS011;2105;52.300;9.182;2023-12-29T02:15:28;14.83;;;10.00;;
4182;SDS011;2105;52.300;9.182;2023-12-29T02:17:59;11.30;;;10.20;;
4182;SDS011;2105;52.300;9.182;2023-12-29T02:20:28;10.50;;;9.63;;
4182;SDS011;2105;52.300;9.182;2023-12-29T02:22:55;12.17;;;10.37;;
4182;SDS011;2105;52.300;9.182;2023-12-29T02:25:23;11.07;;;9.90;;
4182;SDS011;2105;52.300;9.182;2023-12-29T02:27:51;14.73;;;10.40;;
4182;SDS011;2105;52.300;9.182;2023-12-29T02:30:26;10.60;;;9.80;;
4182;SDS011;2105;52.300;9.182;2023-12-29T02:32:58;12.00;;;10.20;;
4182;SDS011;2105;52.300;9.182;2023-12-29T02:35:28;11.30;;;10.10;;
4182;SDS011;2105;52.300;9.182;2023-12-29T02:38:01;12.30;;;10.20;;
4182;SDS011;2105;52.300;9.182;2023-12-29T02:40:29;13.20;;;10.70;;
4182;SDS011;2105;52.300;9.182;2023-12-29T02:42:56;12.60;;;10.20;;
4182;SDS011;2105;52.300;9.182;2023-12-29T02:45:22;15.27;;;10.63;;
4182;SDS011;2105;52.300;9.182;2023-12-29T02:47:49;11.30;;;10.10;;
4182;SDS011;2105;52.300;9.182;2023-12-29T02:50:16;13.53;;;9.87;;
4182;SDS011;2105;52.300;9.182;2023-12-29T02:52:42;14.03;;;9.60;;
4182;SDS011;2105;52.300;9.182;2023-12-29T02:55:09;11.80;;;9.40;;
4182;SDS011;2105;52.300;9.182;2023-12-29T02:57:37;10.03;;;9.23;;
4182;SDS011;2105;52.300;9.182;2023-12-29T03:00:05;10.70;;;9.80;;
4182;SDS011;2105;52.300;9.182;2023-12-29T03:02:33;11.23;;;10.10;;
4182;SDS011;2105;52.300;9.182;2023-12-29T03:05:00;11.40;;;10.30;;
4182;SDS011;2105;52.300;9.182;2023-12-29T03:07:27;11.57;;;10.33;;
4182;SDS011;2105;52.300;9.182;2023-12-29T03:09:53;11.83;;;10.60;;
4182;SDS011;2105;52.300;9.182;2023-12-29T03:12:20;11.13;;;10.13;;
4182;SDS011;2105;52.300;9.182;2023-12-29T03:14:48;11.20;;;10.20;;
4182;SDS011;2105;52.300;9.182;2023-12-29T03:17:15;14.40;;;10.60;;
4182;SDS011;2105;52.300;9.182;2023-12-29T03:19:42;10.87;;;9.97;;
4182;SDS011;2105;52.300;9.182;2023-12-29T03:22:09;10.90;;;10.10;;
4182;SDS011;2105;52.300;9.182;2023-12-29T03:24:36;14.07;;;10.63;;
4182;SDS011;2105;52.300;9.182;2023-12-29T03:27:03;11.70;;;10.70;;
4182;SDS011;2105;52.300;9.182;2023-12-29T03:29:30;11.17;;;10.17;;
4182;SDS011;2105;52.300;9.182;2023-12-29T03:31:58;10.17;;;9.47;;
4182;SDS011;2105;52.300;9.182;2023-12-29T03:34:24;16.10;;;9.47;;
4182;SDS011;2105;52.300;9.182;2023-12-29T03:36:51;6.63;;;6.03;;
4182;SDS011;2105;52.300;9.182;2023-12-29T03:39:18;7.57;;;6.23;;
4182;SDS011;2105;52.300;9.182;2023-12-29T03:41:44;6.73;;;6.00;;
4182;SDS011;2105;52.300;9.182;2023-12-29T03:44:11;6.20;;;5.70;;
4182;SDS011;2105;52.300;9.182;2023-12-29T03:46:38;8.63;;;5.90;;
4182;SDS011;2105;52.300;9.182;2023-12-29T03:49:07;7.00;;;6.30;;
4182;SDS011;2105;52.300;9.182;2023-12-29T03:51:34;6.67;;;6.17;;
4182;SDS011;2105;52.300;9.182;2023-12-29T03:54:00;7.80;;;7.10;;
4182;SDS011;2105;52.300;9.182;2023-12-29T03:56:28;6.90;;;6.40;;
4182;SDS011;2105;52.300;9.182;2023-12-29T03:58:55;7.17;;;6.50;;
4182;SDS011;2105;52.300;9.182;2023-12-29T04:01:22;8.17;;;7.50;;
4182;SDS011;2105;52.300;9.182;2023-12-29T04:03:50;7.17;;;6.50;;
4182;SDS011;2105;52.300;9.182;2023-12-29T04:06:18;10.00;;;6.80;;
4182;SDS011;2105;52.300;9.182;2023-12-29T04:08:44;8.30;;;7.13;;
4182;SDS011;2105;52.300;9.182;2023-12-29T04:11:11;10.43;;;7.10;;
4182;SDS011;2105;52.300;9.182;2023-12-29T04:13:38;7.43;;;6.90;;
4182;SDS011;2105;52.300;9.182;2023-12-29T04:16:05;8.60;;;7.00;;
4182;SDS011;2105;52.300;9.182;2023-12-29T04:18:31;7.50;;;6.90;;
4182;SDS011;2105;52.300;9.182;2023-12-29T04:20:58;7.80;;;7.10;;
4182;SDS011;2105;52.300;9.182;2023-12-29T04:23:26;8.93;;;6.77;;
4182;SDS011;2105;52.300;9.182;2023-12-29T04:25:53;7.33;;;6.80;;
4182;SDS011;2105;52.300;9.182;2023-12-29T04:28:19;7.20;;;6.70;;
4182;SDS011;2105;52.300;9.182;2023-12-29T04:30:46;10.33;;;7.10;;
4182;SDS011;2105;52.300;9.182;2023-12-29T04:33:13;8.10;;;7.03;;
4182;SDS011;2105;52.300;9.182;2023-12-29T04:35:39;7.50;;;6.90;;
4182;SDS011;2105;52.300;9.182;2023-12-29T04:38:06;7.90;;;7.10;;
4182;SDS011;2105;52.300;9.182;2023-12-29T04:40:34;6.60;;;6.00;;
4182;SDS011;2105;52.300;9.182;2023-12-29T04:43:01;5.50;;;5.00;;
4182;SDS011;2105;52.300;9.182;2023-12-29T04:45:27;7.60;;;4.53;;
4182;SDS011;2105;52.300;9.182;2023-12-29T04:47:55;6.53;;;4.13;;
4182;SDS011;2105;52.300;9.182;2023-12-29T04:50:21;6.20;;;4.30;;
4182;SDS011;2105;52.300;9.182;2023-12-29T04:52:48;9.30;;;4.07;;
4182;SDS011;2105;52.300;9.182;2023-12-29T04:55:14;9.33;;;4.20;;
4182;SDS011;2105;52.300;9.182;2023-12-29T04:57:43;8.07;;;4.17;;
4182;SDS011;2105;52.300;9.182;2023-12-29T05:00:10;12.70;;;5.03;;
4182;SDS011;2105;52.300;9.182;2023-12-29T05:02:37;8.43;;;4.30;;
4182;SDS011;2105;52.300;9.182;2023-12-29T05:05:04;5.33;;;4.10;;
4182;SDS011;2105;52.300;9.182;2023-12-29T05:07:31;5.13;;;4.20;;
4182;SDS011;2105;52.300;9.182;2023-12-29T05:09:58;8.43;;;4.67;;
4182;SDS011;2105;52.300;9.182;2023-12-29T05:12:24;7.43;;;5.10;;
4182;SDS011;2105;52.300;9.182;2023-12-29T05:14:52;11.17;;;5.23;;
4182;SDS011;2105;52.300;9.182;2023-12-29T05:17:19;8.27;;;5.10;;
4182;SDS011;2105;52.300;9.182;2023-12-29T05:19:46;6.87;;;4.90;;
4182;SDS011;2105;52.300;9.182;2023-12-29T05:22:13;5.60;;;5.00;;
4182;SDS011;2105;52.300;9.182;2023-12-29T05:24:42;10.57;;;5.30;;
4182;SDS011;2105;52.300;9.182;2023-12-29T05:27:10;7.10;;;4.73;;
4182;SDS011;2105;52.300;9.182;2023-12-29T05:29:36;7.80;;;4.97;;
4182;SDS011;2105;52.300;9.182;2023-12-29T05:32:05;23.30;;;5.10;;
4182;SDS011;2105;52.300;9.182;2023-12-29T05:34:32;15.53;;;5.57;;
4182;SDS011;2105;52.300;9.182;2023-12-29T05:36:58;9.50;;;4.83;;
4182;SDS011;2105;52.300;9.182;2023-12-29T05:39:25;7.07;;;4.93;;
4182;SDS011;2105;52.300;9.182;2023-12-29T05:41:52;13.70;;;5.30;;
4182;SDS011;2105;52.300;9.182;2023-12-29T05:44:18;9.37;;;5.87;;
4182;SDS011;2105;52.300;9.182;2023-12-29T05:46:45;12.67;;;6.00;;
4182;SDS011;2105;52.300;9.182;2023-12-29T05:49:14;7.40;;;5.63;;
4182;SDS011;2105;52.300;9.182;2023-12-29T05:51:40;12.90;;;6.10;;
4182;SDS011;2105;52.300;9.182;2023-12-29T05:54:07;8.60;;;5.67;;
4182;SDS011;2105;52.300;9.182;2023-12-29T05:56:34;15.70;;;6.47;;
4182;SDS011;2105;52.300;9.182;2023-12-29T05:59:00;13.20;;;7.20;;
4182;SDS011;2105;52.300;9.182;2023-12-29T06:01:27;9.23;;;5.33;;
4182;SDS011;2105;52.300;9.182;2023-12-29T06:03:54;12.83;;;5.13;;
4182;SDS011;2105;52.300;9.182;2023-12-29T06:06:22;7.67;;;4.47;;
4182;SDS011;2105;52.300;9.182;2023-12-29T06:08:48;12.30;;;5.30;;
4182;SDS011;2105;52.300;9.182;2023-12-29T06:11:15;10.00;;;4.93;;
4182;SDS011;2105;52.300;9.182;2023-12-29T06:13:42;13.97;;;5.17;;
4182;SDS011;2105;52.300;9.182;2023-12-29T06:16:08;22.20;;;5.40;;
4182;SDS011;2105;52.300;9.182;2023-12-29T06:18:35;8.70;;;5.30;;
4182;SDS011;2105;52.300;9.182;2023-12-29T06:21:02;10.40;;;5.80;;
4182;SDS011;2105;52.300;9.182;2023-12-29T06:23:30;10.17;;;5.33;;
4182;SDS011;2105;52.300;9.182;2023-12-29T06:25:57;13.07;;;6.00;;
4182;SDS011;2105;52.300;9.182;2023-12-29T06:28:23;11.00;;;5.60;;
4182;SDS011;2105;52.300;9.182;2023-12-29T06:30:50;13.40;;;6.20;;
4182;SDS011;2105;52.300;9.182;2023-12-29T06:33:16;13.00;;;5.70;;
4182;SDS011;2105;52.300;9.182;2023-12-29T06:35:45;11.63;;;6.43;;
4182;SDS011;2105;52.300;9.182;2023-12-29T06:38:12;9.83;;;6.20;;
4182;SDS011;2105;52.300;9.182;2023-12-29T06:40:40;17.00;;;8.37;;
4182;SDS011;2105;52.300;9.182;2023-12-29T06:43:07;14.80;;;7.10;;
4182;SDS011;2105;52.300;9.182;2023-12-29T06:45:33;12.87;;;7.60;;
4182;SDS011;2105;52.300;9.182;2023-12-29T06:48:00;14.30;;;7.53;;
4182;SDS011;2105;52.300;9.182;2023-12-29T06:50:27;16.13;;;7.80;;
4182;SDS011;2105;52.300;9.182;2023-12-29T06:52:53;13.10;;;7.77;;
4182;SDS011;2105;52.300;9.182;2023-12-29T06:55:20;13.77;;;7.30;;
4182;SDS011;2105;52.300;9.182;2023-12-29T06:57:48;15.27;;;7.20;;
4182;SDS011;2105;52.300;9.182;2023-12-29T07:00:15;14.97;;;7.33;;
4182;SDS011;2105;52.300;9.182;2023-12-29T07:02:42;14.33;;;8.10;;
4182;SDS011;2105;52.300;9.182;2023-12-29T07:05:08;14.63;;;8.20;;
4182;SDS011;2105;52.300;9.182;2023-12-29T07:07:35;23.90;;;11.23;;
4182;SDS011;2105;52.300;9.182;2023-12-29T07:10:02;12.17;;;9.30;;
4182;SDS011;2105;52.300;9.182;2023-12-29T07:12:31;14.00;;;9.70;;
4182;SDS011;2105;52.300;9.182;2023-12-29T07:14:59;12.47;;;9.57;;
4182;SDS011;2105;52.300;9.182;2023-12-29T07:17:25;17.50;;;10.30;;
4182;SDS011;2105;52.300;9.182;2023-12-29T07:19:52;14.40;;;10.07;;
4182;SDS011;2105;52.300;9.182;2023-12-29T07:22:19;11.83;;;10.27;;
4182;SDS011;2105;52.300;9.182;2023-12-29T07:24:45;15.33;;;10.77;;
4182;SDS011;2105;52.300;9.182;2023-12-29T07:27:12;12.40;;;10.60;;
4182;SDS011;2105;52.300;9.182;2023-12-29T07:29:39;17.30;;;10.57;;
4182;SDS011;2105;52.300;9.182;2023-12-29T07:34:34;11.80;;;10.53;;
4182;SDS011;2105;52.300;9.182;2023-12-29T07:37:01;12.10;;;10.20;;
4182;SDS011;2105;52.300;9.182;2023-12-29T07:39:28;12.50;;;10.10;;
4182;SDS011;2105;52.300;9.182;2023-12-29T07:41:54;11.97;;;10.50;;
4182;SDS011;2105;52.300;9.182;2023-12-29T07:44:21;19.07;;;10.90;;
4182;SDS011;2105;52.300;9.182;2023-12-29T07:46:48;17.70;;;10.87;;
4182;SDS011;2105;52.300;9.182;2023-12-29T07:49:15;25.63;;;11.33;;
4182;SDS011;2105;52.300;9.182;2023-12-29T07:51:46;13.40;;;10.60;;
4182;SDS011;2105;52.300;9.182;2023-12-29T07:54:13;13.63;;;11.07;;
4182;SDS011;2105;52.300;9.182;2023-12-29T07:56:40;11.87;;;10.47;;
4182;SDS011;2105;52.300;9.182;2023-12-29T07:59:07;13.83;;;10.67;;
4182;SDS011;2105;52.300;9.182;2023-12-29T08:01:34;19.20;;;11.47;;
4182;SDS011;2105;52.300;9.182;2023-12-29T08:04:01;17.80;;;11.80;;
4182;SDS011;2105;52.300;9.182;2023-12-29T08:06:28;15.70;;;11.20;;
4182;SDS011;2105;52.300;9.182;2023-12-29T08:08:56;18.77;;;11.70;;
4182;SDS011;2105;52.300;9.182;2023-12-29T08:11:23;12.60;;;11.30;;
4182;SDS011;2105;52.300;9.182;2023-12-29T08:13:50;15.17;;;12.13;;
4182;SDS011;2105;52.300;9.182;2023-12-29T08:16:16;18.37;;;11.60;;
4182;SDS011;2105;52.300;9.182;2023-12-29T08:18:44;15.00;;;11.90;;
4182;SDS011;2105;52.300;9.182;2023-12-29T08:21:15;15.53;;;11.17;;
4182;SDS011;2105;52.300;9.182;2023-12-29T08:23:43;12.30;;;11.10;;
4182;SDS011;2105;52.300;9.182;2023-12-29T08:26:12;14.90;;;11.27;;
4182;SDS011;2105;52.300;9.182;2023-12-29T08:28:38;17.23;;;11.40;;
4182;SDS011;2105;52.300;9.182;2023-12-29T08:31:06;16.27;;;11.13;;
4182;SDS011;2105;52.300;9.182;2023-12-29T08:33:33;17.27;;;11.53;;
4182;SDS011;2105;52.300;9.182;2023-12-29T08:36:01;12.53;;;10.90;;
4182;SDS011;2105;52.300;9.182;2023-12-29T08:38:28;13.17;;;10.80;;
4182;SDS011;2105;52.300;9.182;2023-12-29T08:40:55;17.53;;;11.00;;
4182;SDS011;2105;52.300;9.182;2023-12-29T08:43:23;14.20;;;11.10;;
4182;SDS011;2105;52.300;9.182;2023-12-29T08:45:50;13.97;;;10.77;;
4182;SDS011;2105;52.300;9.182;2023-12-29T08:48:16;11.73;;;10.53;;
4182;SDS011;2105;52.300;9.182;2023-12-29T08:50:43;13.87;;;10.97;;
4182;SDS011;2105;52.300;9.182;2023-12-29T08:53:10;12.80;;;11.40;;
4182;SDS011;2105;52.300;9.182;2023-12-29T08:55:36;17.47;;;11.63;;
4182;SDS011;2105;52.300;9.182;2023-12-29T08:58:03;16.00;;;11.27;;
4182;SDS011;2105;52.300;9.182;2023-12-29T09:00:31;15.60;;;11.20;;
4182;SDS011;2105;52.300;9.182;2023-12-29T09:02:58;13.13;;;10.60;;
4182;SDS011;2105;52.300;9.182;2023-12-29T09:05:25;14.37;;;11.47;;
4182;SDS011;2105;52.300;9.182;2023-12-29T09:07:51;13.30;;;10.70;;
4182;SDS011;2105;52.300;9.182;2023-12-29T09:10:18;19.57;;;10.33;;
4182;SDS011;2105;52.300;9.182;2023-12-29T09:12:46;9.00;;;8.00;;
4182;SDS011;2105;52.300;9.182;2023-12-29T09:15:13;16.20;;;7.50;;
4182;SDS011;2105;52.300;9.182;2023-12-29T09:17:41;9.20;;;6.70;;
4182;SDS011;2105;52.300;9.182;2023-12-29T09:20:08;14.30;;;7.20;;
4182;SDS011;2105;52.300;9.182;2023-12-29T09:22:36;12.40;;;7.10;;
4182;SDS011;2105;52.300;9.182;2023-12-29T09:25:03;13.67;;;7.70;;
4182;SDS011;2105;52.300;9.182;2023-12-29T09:27:30;19.17;;;6.27;;
4182;SDS011;2105;52.300;9.182;2023-12-29T09:29:57;12.10;;;6.23;;
4182;SDS011;2105;52.300;9.182;2023-12-29T09:32:24;8.53;;;5.57;;
4182;SDS011;2105;52.300;9.182;2023-12-29T09:34:53;12.63;;;6.00;;
4182;SDS011;2105;52.300;9.182;2023-12-29T09:37:19;10.60;;;5.23;;
4182;SDS011;2105;52.300;9.182;2023-12-29T09:39:46;9.60;;;5.50;;
4182;SDS011;2105;52.300;9.182;2023-12-29T09:42:13;8.50;;;4.70;;
4182;SDS011;2105;52.300;9.182;2023-12-29T09:44:46;8.57;;;4.20;;
4182;SDS011;2105;52.300;9.182;2023-12-29T09:47:16;11.50;;;4.50;;
4182;SDS011;2105;52.300;9.182;2023-12-29T09:49:48;11.87;;;4.23;;
4182;SDS011;2105;52.300;9.182;2023-12-29T09:52:16;7.43;;;3.70;;
4182;SDS011;2105;52.300;9.182;2023-12-29T09:54:44;14.50;;;4.27;;
4182;SDS011;2105;52.300;9.182;2023-12-29T09:57:11;8.60;;;3.73;;
4182;SDS011;2105;52.300;9.182;2023-12-29T09:59:38;13.07;;;4.33;;
4182;SDS011;2105;52.300;9.182;2023-12-29T10:02:08;7.40;;;3.97;;
4182;SDS011;2105;52.300;9.182;2023-12-29T10:04:38;9.63;;;4.00;;
4182;SDS011;2105;52.300;9.182;2023-12-29T10:07:05;4.90;;;3.43;;
4182;SDS011;2105;52.300;9.182;2023-12-29T10:09:35;6.63;;;3.07;;
4182;SDS011;2105;52.300;9.182;2023-12-29T10:12:04;7.20;;;3.53;;
4182;SDS011;2105;52.300;9.182;2023-12-29T10:14:36;8.50;;;3.47;;
4182;SDS011;2105;52.300;9.182;2023-12-29T10:17:09;12.73;;;4.97;;
4182;SDS011;2105;52.300;9.182;2023-12-29T10:19:45;7.97;;;3.50;;
4182;SDS011;2105;52.300;9.182;2023-12-29T10:22:20;7.13;;;3.50;;
4182;SDS011;2105;52.300;9.182;2023-12-29T10:24:53;5.10;;;3.47;;
4182;SDS011;2105;52.300;9.182;2023-12-29T10:27:20;7.87;;;4.20;;
4182;SDS011;2105;52.300;9.182;2023-12-29T10:29:48;5.73;;;3.60;;
4182;SDS011;2105;52.300;9.182;2023-12-29T10:32:14;6.70;;;3.13;;
4182;SDS011;2105;52.300;9.182;2023-12-29T10:34:41;4.93;;;3.10;;
4182;SDS011;2105;52.300;9.182;2023-12-29T10:37:07;6.33;;;3.00;;
4182;SDS011;2105;52.300;9.182;2023-12-29T10:39:38;11.30;;;2.90;;
4182;SDS011;2105;52.300;9.182;2023-12-29T10:42:07;7.00;;;3.40;;
4182;SDS011;2105;52.300;9.182;2023-12-29T10:44:34;11.20;;;4.47;;
4182;SDS011;2105;52.300;9.182;2023-12-29T10:47:08;9.63;;;3.67;;
4182;SDS011;2105;52.300;9.182;2023-12-29T10:49:35;5.80;;;3.63;;
4182;SDS011;2105;52.300;9.182;2023-12-29T10:52:10;4.50;;;3.80;;
4182;SDS011;2105;52.300;9.182;2023-12-29T10:54:37;7.87;;;4.13;;
4182;SDS011;2105;52.300;9.182;2023-12-29T10:57:03;6.50;;;4.60;;
4182;SDS011;2105;52.300;9.182;2023-12-29T10:59:31;7.03;;;4.90;;
4182;SDS011;2105;52.300;9.182;2023-12-29T11:02:00;6.50;;;5.00;;
4182;SDS011;2105;52.300;9.182;2023-12-29T11:04:27;5.17;;;4.63;;
4182;SDS011;2105;52.300;9.182;2023-12-29T11:06:53;6.37;;;5.50;;
4182;SDS011;2105;52.300;9.182;2023-12-29T11:09:26;11.37;;;5.90;;
4182;SDS011;2105;52.300;9.182;2023-12-29T11:11:55;5.80;;;5.37;;
4182;SDS011;2105;52.300;9.182;2023-12-29T11:14:22;9.10;;;5.97;;
4182;SDS011;2105;52.300;9.182;2023-12-29T11:16:51;5.70;;;5.30;;
4182;SDS011;2105;52.300;9.182;2023-12-29T11:19:20;10.30;;;5.77;;
4182;SDS011;2105;52.300;9.182;2023-12-29T11:21:47;6.30;;;5.67;;
4182;SDS011;2105;52.300;9.182;2023-12-29T11:24:17;6.00;;;5.60;;
4182;SDS011;2105;52.300;9.182;2023-12-29T11:26:44;6.40;;;5.83;;
4182;SDS011;2105;52.300;9.182;2023-12-29T11:29:11;6.80;;;6.10;;
4182;SDS011;2105;52.300;9.182;2023-12-29T11:31:37;6.07;;;5.53;;
4182;SDS011;2105;52.300;9.182;2023-12-29T11:34:07;7.90;;;5.70;;
4182;SDS011;2105;52.300;9.182;2023-12-29T11:36:40;6.43;;;5.50;;
4182;SDS011;2105;52.300;9.182;2023-12-29T11:39:14;6.40;;;5.90;;
4182;SDS011;2105;52.300;9.182;2023-12-29T11:41:47;8.60;;;6.00;;
4182;SDS011;2105;52.300;9.182;2023-12-29T11:44:26;6.90;;;6.20;;
4182;SDS011;2105;52.300;9.182;2023-12-29T11:46:53;6.83;;;6.33;;
4182;SDS011;2105;52.300;9.182;2023-12-29T11:49:21;6.90;;;6.30;;
4182;SDS011;2105;52.300;9.182;2023-12-29T11:51:49;8.60;;;6.60;;
4182;SDS011;2105;52.300;9.182;2023-12-29T11:54:21;6.97;;;6.27;;
4182;SDS011;2105;52.300;9.182;2023-12-29T11:56:49;7.20;;;6.60;;
4182;SDS011;2105;52.300;9.182;2023-12-29T11:59:16;7.27;;;6.53;;
4182;SDS011;2105;52.300;9.182;2023-12-29T12:01:43;6.63;;;6.23;;
4182;SDS011;2105;52.300;9.182;2023-12-29T12:07:07;7.20;;;6.70;;
4182;SDS011;2105;52.300;9.182;2023-12-29T12:09:34;8.27;;;7.57;;
4182;SDS011;2105;52.300;9.182;2023-12-29T12:12:02;7.90;;;7.17;;
4182;SDS011;2105;52.300;9.182;2023-12-29T12:14:45;6.90;;;6.50;;
4182;SDS011;2105;52.300;9.182;2023-12-29T12:17:26;6.73;;;6.33;;
4182;SDS011;2105;52.300;9.182;2023-12-29T12:19:56;6.87;;;6.40;;
4182;SDS011;2105;52.300;9.182;2023-12-29T12:22:24;6.90;;;6.20;;
4182;SDS011;2105;52.300;9.182;2023-12-29T12:24:57;6.70;;;6.20;;
4182;SDS011;2105;52.300;9.182;2023-12-29T12:27:24;6.33;;;5.73;;
4182;SDS011;2105;52.300;9.182;2023-12-29T12:29:54;5.80;;;5.40;;
4182;SDS011;2105;52.300;9.182;2023-12-29T12:32:24;5.97;;;5.47;;
4182;SDS011;2105;52.300;9.182;2023-12-29T12:34:51;6.77;;;5.40;;
4182;SDS011;2105;52.300;9.182;2023-12-29T12:37:23;6.27;;;5.77;;
4182;SDS011;2105;52.300;9.182;2023-12-29T12:39:50;5.93;;;5.43;;
4182;SDS011;2105;52.300;9.182;2023-12-29T12:42:18;6.13;;;5.57;;
4182;SDS011;2105;52.300;9.182;2023-12-29T12:44:49;5.83;;;5.30;;
4182;SDS011;2105;52.300;9.182;2023-12-29T12:47:25;5.50;;;5.20;;
4182;SDS011;2105;52.300;9.182;2023-12-29T12:49:58;5.63;;;5.33;;
4182;SDS011;2105;52.300;9.182;2023-12-29T12:52:27;6.10;;;5.70;;
4182;SDS011;2105;52.300;9.182;2023-12-29T12:54:56;5.90;;;5.40;;
4182;SDS011;2105;52.300;9.182;2023-12-29T12:57:23;6.00;;;5.60;;
4182;SDS011;2105;52.300;9.182;2023-12-29T12:59:50;6.37;;;5.87;;
4182;SDS011;2105;52.300;9.182;2023-12-29T13:02:19;6.33;;;5.90;;
4182;SDS011;2105;52.300;9.182;2023-12-29T13:04:46;6.60;;;6.20;;
4182;SDS011;2105;52.300;9.182;2023-12-29T13:07:14;6.70;;;6.30;;
4182;SDS011;2105;52.300;9.182;2023-12-29T13:09:43;6.17;;;5.77;;
4182;SDS011;2105;52.300;9.182;2023-12-29T13:12:10;6.60;;;6.20;;
4182;SDS011;2105;52.300;9.182;2023-12-29T13:14:38;7.20;;;6.63;;
4182;SDS011;2105;52.300;9.182;2023-12-29T13:17:05;6.50;;;6.13;;
4182;SDS011;2105;52.300;9.182;2023-12-29T13:19:33;7.10;;;6.57;;
4182;SDS011;2105;52.300;9.182;2023-12-29T13:22:00;6.93;;;6.53;;
4182;SDS011;2105;52.300;9.182;2023-12-29T13:24:28;7.30;;;6.83;;
4182;SDS011;2105;52.300;9.182;2023-12-29T13:26:57;7.63;;;6.93;;
4182;SDS011;2105;52.300;9.182;2023-12-29T13:29:27;7.73;;;7.13;;
4182;SDS011;2105;52.300;9.182;2023-12-29T13:31:56;7.73;;;6.87;;
4182;SDS011;2105;52.300;9.182;2023-12-29T13:34:27;6.90;;;6.50;;
4182;SDS011;2105;52.300;9.182;2023-12-29T13:37:00;8.93;;;6.80;;
4182;SDS011;2105;52.300;9.182;2023-12-29T13:39:31;7.93;;;7.43;;
4182;SDS011;2105;52.300;9.182;2023-12-29T13:42:05;8.77;;;8.27;;
4182;SDS011;2105;52.300;9.182;2023-12-29T13:44:34;8.60;;;7.83;;
4182;SDS011;2105;52.300;9.182;2023-12-29T13:47:03;8.20;;;7.70;;
4182;SDS011;2105;52.300;9.182;2023-12-29T13:49:30;8.50;;;8.00;;
4182;SDS011;2105;52.300;9.182;2023-12-29T13:52:02;8.60;;;8.00;;
4182;SDS011;2105;52.300;9.182;2023-12-29T13:54:29;8.43;;;7.80;;
4182;SDS011;2105;52.300;9.182;2023-12-29T13:56:56;9.27;;;8.37;;
4182;SDS011;2105;52.300;9.182;2023-12-29T13:59:30;8.73;;;8.23;;
4182;SDS011;2105;52.300;9.182;2023-12-29T14:01:58;8.90;;;8.20;;
4182;SDS011;2105;52.300;9.182;2023-12-29T14:04:25;8.93;;;8.30;;
4182;SDS011;2105;52.300;9.182;2023-12-29T14:06:53;9.60;;;8.80;;
4182;SDS011;2105;52.300;9.182;2023-12-29T14:09:24;9.50;;;8.60;;
4182;SDS011;2105;52.300;9.182;2023-12-29T14:11:51;9.20;;;8.60;;
4182;SDS011;2105;52.300;9.182;2023-12-29T14:14:21;9.47;;;8.77;;
4182;SDS011;2105;52.300;9.182;2023-12-29T14:16:49;9.20;;;8.60;;
4182;SDS011;2105;52.300;9.182;2023-12-29T14:19:17;9.53;;;8.63;;
4182;SDS011;2105;52.300;9.182;2023-12-29T14:21:44;9.27;;;8.47;;
4182;SDS011;2105;52.300;9.182;2023-12-29T14:24:12;8.67;;;8.17;;
4182;SDS011;2105;52.300;9.182;2023-12-29T14:26:41;9.63;;;8.70;;
4182;SDS011;2105;52.300;9.182;2023-12-29T14:29:19;9.23;;;8.63;;
4182;SDS011;2105;52.300;9.182;2023-12-29T14:31:47;10.27;;;9.30;;
4182;SDS011;2105;52.300;9.182;2023-12-29T14:34:17;11.03;;;9.13;;
4182;SDS011;2105;52.300;9.182;2023-12-29T14:36:44;9.40;;;8.70;;
4182;SDS011;2105;52.300;9.182;2023-12-29T14:39:11;9.87;;;8.90;;
4182;SDS011;2105;52.300;9.182;2023-12-29T14:41:38;10.10;;;9.10;;
4182;SDS011;2105;52.300;9.182;2023-12-29T14:44:05;9.70;;;9.00;;
4182;SDS011;2105;52.300;9.182;2023-12-29T14:46:32;9.47;;;8.67;;
4182;SDS011;2105;52.300;9.182;2023-12-29T14:48:59;9.70;;;8.80;;
4182;SDS011;2105;52.300;9.182;2023-12-29T14:51:27;9.57;;;8.70;;
4182;SDS011;2105;52.300;9.182;2023-12-29T14:53:54;15.40;;;9.37;;
4182;SDS011;2105;52.300;9.182;2023-12-29T14:56:20;9.80;;;8.90;;
4182;SDS011;2105;52.300;9.182;2023-12-29T14:58:47;9.20;;;8.60;;
4182;SDS011;2105;52.300;9.182;2023-12-29T15:01:14;9.53;;;8.83;;
4182;SDS011;2105;52.300;9.182;2023-12-29T15:03:41;9.70;;;8.80;;
4182;SDS011;2105;52.300;9.182;2023-12-29T15:06:07;9.90;;;9.00;;
4182;SDS011;2105;52.300;9.182;2023-12-29T15:08:35;9.20;;;8.60;;
4182;SDS011;2105;52.300;9.182;2023-12-29T15:11:02;10.23;;;9.07;;